VOI weather

Voinjama Airport
Voinjama, Lofa County, Liberia

Public forecast

Using degrees Celsius for public forecast. Weather courtesy of forecast.io.

Closest aviation weather report (METAR) to Voinjama Airport

Report is more than 6 hours old.

Closest report is Nzérékoré Airport, 72.7 nm (134.6 km) ESE. Retrieved 2017/04/25 07:00 UTC (3 years ago):

GUNZ 250700Z 00000KT 8000 BKN012 SCT110 22/20 Q1012 NOSIG

Closest aviation forecast (TAF) to Voinjama Airport

Forecast is more than 12 hours old.

Closest forecast is Lungi International Airport, 204.0 nm (377.8 km) W. Retrieved 2020/06/01 12:00 UTC (18 hours ago):

TAF GFLL 011100Z 0112/0218 VRB03KT 9999 BKN013 TEMPO 0112/0117 24006KT TS SCT014 FEW026CB TEMPO 0122/0203 20004KT 9999 BKN012 TEMPO 0206/0210 VRB02KT SCT013 TEMPO BKN012 BECMG 0215/0217 28007KT TS BKN011 FEW026CB